159 км

Карта отелей и гостиниц, располагающихся рядом с аэропортом 159 км :

159 км Томская область 59° 52' 12" N, 78° 31' 29.82" E
159 км Томская область 59° 52' 12" N, 78° 31' 29.82" E
Код аэродрома ИКАО
HB68
Код аэродрома RU
ХБ68
Координаты
N59.87000° E078.52495°
Превышение над уровнем моря
82
Основная полоса
Курс магнитный
Длина основной ВПП
Ширина основной ВПП
Покрытие основной ВПП
Освещение ВПП
Тип: 
Вертодром
Класс аэродрома: 
Принадлежность: 
ГА
Статус: 
Недействующий
Сайт: 
E-mail аэродрома: 
Страна: 
Россия
Регион: 
Томская область
Город: 
Дополнительная информация: 

Найти трансфер

С помощью этой формы Вы можете найти трансфер из аэропорта 159 км в город, аэропорт или вокзал:

Карта места

Javascript is required to view this map.

Погода в аэропортах:

Авиационная погода в Хомутово

Регион: 
Погода METAR: 
UHSS 131200Z 22003MPS 3600 -SHRA BR SCT006 BKN021CB 05/04 Q0995 R19/250255 NOSIG RMK MT OBSC QFE745/0993
Время наблюдения
2021-04-13T12:00:00Z
Температура C
5.0
Точка росы
4.0
Направление ветра
220
Скорость ветра (узлы)
6
Метео видимость
2.24
Явления погоды
-SHRA BR
Условия полета
IFR
Аэропорт подробнее: 

Авиационная погода в Иркутске

Регион: 
Погода METAR: 
UIII 131200Z 02008MPS 9000 -SHRA OVC009CB 03/02 Q1014 R30/60D NOSIG RMK QBB270 QFE716/0955
Время наблюдения
2021-04-13T12:00:00Z
Температура C
3.0
Точка росы
2.0
Направление ветра
20
Скорость ветра (узлы)
16
Метео видимость
5.59
Явления погоды
-SHRA
Условия полета
IFR
Аэропорт подробнее: 

Авиационная погода в Полярном

Регион: 
Погода METAR: 
UERP 131200Z 20002MPS 6000 -SHSN BKN017CB OVC100 M03/M04 Q0995 R17/492040 NOSIG RMK QFE702
Время наблюдения
2021-04-13T12:00:00Z
Температура C
-3.0
Точка росы
-4.0
Направление ветра
200
Скорость ветра (узлы)
4
Метео видимость
3.73
Явления погоды
-SHSN
Условия полета
MVFR
Аэропорт подробнее: 

Авиационная погода в Елизово

Регион: 
Погода METAR: 
UHPP 131200Z 21001MPS 5000 BR BKN022 M00/M00 Q1015 R16R/290155 NOSIG RMK QFE758/1011
Время наблюдения
2021-04-13T12:00:00Z
Температура C
0.0
Точка росы
0.0
Направление ветра
210
Скорость ветра (узлы)
2
Метео видимость
3.11
Явления погоды
BR
Условия полета
MVFR
Аэропорт подробнее: